Time;durP1;ratioP1;P1;durP2;ratioP2;P2;SDS_P1;SDS_P2;PMS_P1;PMS_P2;Temp;Humidity;BMP_temperature;BMP_pressure;BME280_temperature;BME280_humidity;BME280_pressure;Samples;Min_cycle;Max_cycle;Signal;HPM_P1;HPM_P2
2023/03/17 00:00:51;;;;;;;4.87;2.43;;;;;;;9.03;59.93;100721.25;5177995;28;20037;-75
2023/03/17 00:03:25;;;;;;;3.87;2.77;;;;;;;9.17;59.25;100741.38;5194712;28;20046;-75
2023/03/17 00:05:57;;;;;;;6.38;2.72;;;;;;;9.03;60.26;100742.13;5195535;28;20023;-75
2023/03/17 00:08:34;;;;;;;6.97;3.10;;;;;;;8.81;59.80;100706.75;5195495;28;20425;-75
2023/03/17 00:11:11;;;;;;;9.67;3.17;;;;;;;8.98;60.15;100734.56;5194592;28;20022;-75
2023/03/17 00:13:44;;;;;;;8.07;2.73;;;;;;;9.11;59.46;100729.50;5195760;28;20033;-75
2023/03/17 00:16:23;;;;;;;6.17;3.50;;;;;;;9.10;59.75;100737.41;5194936;28;20775;-75
2023/03/17 00:18:56;;;;;;;6.27;2.93;;;;;;;9.11;59.87;100737.31;5187339;28;20027;-75
2023/03/17 00:21:33;;;;;;;6.57;3.50;;;;;;;8.73;60.77;100724.63;5194479;28;20049;-75
2023/03/17 00:24:05;;;;;;;7.07;3.20;;;;;;;8.72;60.66;100713.31;5194414;28;20054;-76
2023/03/17 00:26:36;;;;;;;5.53;2.63;;;;;;;8.60;61.03;100704.41;5194610;28;20053;-75
2023/03/17 00:29:08;;;;;;;8.13;2.90;;;;;;;8.69;61.18;100696.03;5185609;28;20042;-75
2023/03/17 00:31:40;;;;;;;8.57;3.00;;;;;;;8.50;61.73;100697.94;5188123;28;20067;-75
2023/03/17 00:34:16;;;;;;;7.80;3.20;;;;;;;8.63;62.33;100701.63;5182904;28;20034;-75
2023/03/17 00:36:50;;;;;;;6.17;3.13;;;;;;;8.34;62.91;100691.75;5194713;28;20018;-75
2023/03/17 00:39:24;;;;;;;5.33;2.60;;;;;;;8.50;62.42;100698.78;5185137;28;20138;-75
2023/03/17 00:41:55;;;;;;;11.13;3.50;;;;;;;8.35;63.22;100697.84;5189935;28;20038;-75
2023/03/17 00:44:26;;;;;;;7.70;2.87;;;;;;;8.29;63.16;100690.34;5185817;28;20406;-75
2023/03/17 00:46:58;;;;;;;4.97;2.90;;;;;;;8.30;63.93;100703.31;5189217;28;20100;-75
2023/03/17 00:49:29;;;;;;;5.60;2.80;;;;;;;8.53;63.25;100692.56;5194344;28;20026;-76
2023/03/17 00:52:01;;;;;;;3.77;2.40;;;;;;;8.45;63.37;100701.63;5180965;28;20053;-75
2023/03/17 00:54:32;;;;;;;4.10;2.70;;;;;;;8.06;64.43;100676.72;5176030;28;20426;-76
2023/03/17 00:57:04;;;;;;;7.23;3.27;;;;;;;8.14;64.75;100679.78;5193333;28;20109;-75
2023/03/17 00:59:41;;;;;;;4.40;2.40;;;;;;;8.28;64.76;100699.91;5194812;28;20030;-75
2023/03/17 01:02:12;;;;;;;5.37;3.37;;;;;;;8.39;64.32;100696.75;5194253;28;20054;-75
2023/03/17 01:04:44;;;;;;;5.23;2.40;;;;;;;8.06;65.17;100690.63;5194537;28;20045;-75
2023/03/17 01:07:16;;;;;;;5.77;3.20;;;;;;;8.11;65.82;100699.06;5176441;28;20034;-75
2023/03/17 01:09:48;;;;;;;7.33;3.40;;;;;;;8.07;65.31;100701.88;5193306;28;20030;-75
2023/03/17 01:12:20;;;;;;;6.40;3.20;;;;;;;8.02;65.74;100693.44;5192709;28;20453;-75
2023/03/17 01:14:51;;;;;;;6.17;2.90;;;;;;;8.06;66.17;100702.81;5194308;28;20030;-75
2023/03/17 01:17:22;;;;;;;6.93;2.93;;;;;;;8.09;66.08;100684.38;5194157;28;20450;-75
2023/03/17 01:19:54;;;;;;;8.40;3.27;;;;;;;8.01;65.96;100689.16;5193791;28;20041;-75
2023/03/17 01:22:25;;;;;;;7.53;2.80;;;;;;;7.91;65.53;100667.91;5192323;28;20553;-75
2023/03/17 01:24:57;;;;;;;4.43;2.53;;;;;;;7.96;65.78;100684.16;5188124;28;20135;-75
2023/03/17 01:27:33;;;;;;;8.80;2.47;;;;;;;8.13;65.82;100680.72;5189968;28;20113;-75
2023/03/17 01:30:07;;;;;;;8.10;2.63;;;;;;;8.21;65.38;100670.72;5193527;28;20027;-75
2023/03/17 01:32:38;;;;;;;6.07;2.80;;;;;;;7.87;66.38;100672.47;5194258;28;20057;-75
2023/03/17 01:35:10;;;;;;;7.30;2.93;;;;;;;8.19;65.04;100682.97;5193719;28;20022;-75
2023/03/17 01:37:42;;;;;;;4.70;2.97;;;;;;;7.88;65.48;100668.94;5176432;28;20636;-75
2023/03/17 01:40:22;;;;;;;4.97;2.63;;;;;;;8.21;65.10;100678.53;5187087;28;20655;-75
2023/03/17 01:43:07;;;;;;;5.53;2.77;;;;;;;8.18;64.71;100665.66;5182241;28;20066;-75
2023/03/17 01:45:58;;;;;;;;;;;;;;;8.30;64.33;100674.59;5192752;28;20092;-75
2023/03/17 01:48:36;;;;;;;7.77;3.47;;;;;;;8.03;64.96;100658.63;5183908;28;19933;-75
2023/03/17 01:51:13;;;;;;;4.77;2.77;;;;;;;8.00;65.21;100667.44;5175593;28;20033;-75
2023/03/17 01:53:48;;;;;;;7.23;3.00;;;;;;;7.98;65.72;100661.47;5190522;28;20101;-75
2023/03/17 01:56:20;;;;;;;5.90;3.30;;;;;;;8.03;65.37;100664.69;5192679;28;20030;-75
2023/03/17 01:58:53;;;;;;;8.33;2.97;;;;;;;7.89;65.03;100662.78;5193341;28;20022;-75
2023/03/17 02:01:32;;;;;;;8.73;3.70;;;;;;;8.02;65.18;100646.50;5183682;28;20522;-76
2023/03/17 02:04:05;;;;;;;6.47;3.50;;;;;;;7.95;64.98;100648.59;5189405;28;20450;-76
2023/03/17 02:06:37;;;;;;;12.07;4.70;;;;;;;8.07;65.23;100649.72;5193272;28;20026;-76
2023/03/17 02:09:08;;;;;;;9.83;3.57;;;;;;;7.90;64.88;100607.13;5191973;28;20098;-76
2023/03/17 02:11:40;;;;;;;8.03;4.03;;;;;;;8.12;64.78;100642.47;5193053;28;20117;-76
2023/03/17 02:14:12;;;;;;;8.20;3.50;;;;;;;8.10;64.70;100632.13;5189916;28;20073;-76
2023/03/17 02:16:44;;;;;;;7.10;3.20;;;;;;;8.13;64.13;100641.59;5182036;28;20110;-75
2023/03/17 02:19:16;;;;;;;8.13;3.53;;;;;;;7.89;64.68;100631.50;5174854;28;20684;-75
2023/03/17 02:21:53;;;;;;;7.63;4.07;;;;;;;7.99;64.49;100634.47;5193017;28;20033;-75
2023/03/17 02:25:03;;;;;;;8.93;4.40;;;;;;;8.18;64.55;100642.19;5177861;28;20033;-75
2023/03/17 02:27:40;;;;;;;7.47;3.47;;;;;;;8.02;64.51;100638.69;5089949;29;20052;-76
2023/03/17 02:30:16;;;;;;;7.03;3.97;;;;;;;8.16;64.28;100628.38;5152536;28;20083;-75
2023/03/17 02:32:47;;;;;;;5.50;2.87;;;;;;;8.10;64.51;100623.47;5192651;28;20038;-75
2023/03/17 02:35:19;;;;;;;10.03;3.63;;;;;;;8.12;63.94;100619.00;5192737;28;20033;-75
2023/03/17 02:37:50;;;;;;;9.93;5.00;;;;;;;7.94;64.31;100613.00;5180356;28;20015;-75
2023/03/17 02:40:23;;;;;;;8.70;3.77;;;;;;;8.01;64.43;100619.59;5191453;28;20026;-75
2023/03/17 02:42:55;;;;;;;9.63;3.50;;;;;;;7.92;64.29;100604.44;5192738;28;20073;-75
2023/03/17 02:45:26;;;;;;;7.67;3.70;;;;;;;8.13;64.74;100618.09;5167951;28;20050;-75
2023/03/17 02:47:58;;;;;;;10.37;3.87;;;;;;;7.96;64.07;100601.56;5192660;28;20529;-74
2023/03/17 02:50:30;;;;;;;9.40;3.97;;;;;;;8.17;63.92;100610.97;5192159;28;20026;-74
2023/03/17 02:53:01;;;;;;;7.17;3.40;;;;;;;8.15;63.33;100584.09;5179391;28;20037;-74
2023/03/17 02:55:33;;;;;;;7.00;3.57;;;;;;;8.04;63.93;100602.94;5190137;28;20709;-74
2023/03/17 02:58:04;;;;;;;8.57;3.10;;;;;;;7.97;64.04;100592.84;5192236;28;20109;-74
2023/03/17 03:00:37;;;;;;;13.77;3.93;;;;;;;8.09;63.91;100613.97;5174937;28;20693;-74
2023/03/17 03:03:15;;;;;;;7.27;3.73;;;;;;;8.04;63.78;100610.75;5191742;28;20077;-74
2023/03/17 03:05:46;;;;;;;7.47;3.50;;;;;;;8.04;63.68;100608.16;5175310;28;20033;-74
2023/03/17 03:08:18;;;;;;;7.77;3.07;;;;;;;8.07;63.33;100616.66;5173511;28;20096;-74
2023/03/17 03:10:49;;;;;;;7.13;2.67;;;;;;;8.08;63.01;100607.88;5191959;28;20042;-74
2023/03/17 03:13:20;;;;;;;5.40;2.50;;;;;;;7.96;63.24;100601.56;5192348;28;20038;-74
2023/03/17 03:15:52;;;;;;;8.33;3.57;;;;;;;8.17;63.21;100613.56;5192322;28;20373;-75
2023/03/17 03:18:23;;;;;;;9.23;3.53;;;;;;;7.99;62.99;100583.13;5174656;28;20034;-75
2023/03/17 03:20:55;;;;;;;10.10;3.57;;;;;;;8.21;62.85;100615.91;5196714;28;20123;-75
2023/03/17 03:23:27;;;;;;;7.30;3.07;;;;;;;8.14;62.64;100613.72;5190076;28;20122;-75
2023/03/17 03:25:58;;;;;;;8.40;3.00;;;;;;;8.12;62.33;100619.00;5198285;28;20522;-75
2023/03/17 03:28:30;;;;;;;6.10;2.70;;;;;;;8.19;62.45;100622.97;5199042;28;20034;-75
2023/03/17 03:31:01;;;;;;;6.67;2.53;;;;;;;8.13;62.61;100609.44;5198552;28;20053;-75
2023/03/17 03:33:33;;;;;;;7.33;2.80;;;;;;;8.30;62.62;100608.50;5181579;28;20069;-75
2023/03/17 03:36:05;;;;;;;7.37;3.10;;;;;;;8.10;62.53;100594.75;5198761;28;20109;-75
2023/03/17 03:38:36;;;;;;;6.23;3.90;;;;;;;8.16;62.11;100607.50;5183635;28;20121;-75
2023/03/17 03:41:08;;;;;;;9.30;2.80;;;;;;;8.27;62.02;100634.78;5185568;28;20113;-75
2023/03/17 03:43:40;;;;;;;6.73;3.67;;;;;;;8.23;61.92;100628.88;5198229;28;20042;-75
2023/03/17 03:46:11;;;;;;;8.63;2.73;;;;;;;8.14;61.80;100611.09;5198568;28;20088;-75
2023/03/17 03:48:43;;;;;;;7.10;2.87;;;;;;;8.17;61.92;100629.22;5197999;28;20026;-75
2023/03/17 03:51:14;;;;;;;7.53;2.70;;;;;;;8.25;62.82;100621.81;5198457;28;20034;-75
2023/03/17 03:53:47;;;;;;;11.47;3.10;;;;;;;8.11;62.03;100626.00;5197608;28;20113;-76
2023/03/17 03:56:18;;;;;;;9.23;3.50;;;;;;;7.98;62.50;100620.59;5198208;28;20073;-76
2023/03/17 03:58:50;;;;;;;6.43;3.10;;;;;;;8.12;62.50;100642.47;5198683;28;20445;-76
2023/03/17 04:01:21;;;;;;;9.10;4.23;;;;;;;8.16;62.23;100636.19;5180610;28;20486;-75
2023/03/17 04:03:55;;;;;;;7.40;3.23;;;;;;;8.13;62.61;100644.19;5198186;28;20083;-75
2023/03/17 04:06:26;;;;;;;8.32;2.90;;;;;;;8.07;62.83;100652.31;5197534;28;20101;-75
2023/03/17 04:08:58;;;;;;;10.80;4.20;;;;;;;8.08;63.24;100633.97;5191974;28;20847;-74
2023/03/17 04:11:29;;;;;;;11.37;4.20;;;;;;;7.85;63.42;100622.16;5181163;28;20114;-75
2023/03/17 04:14:01;;;;;;;10.60;3.67;;;;;;;7.91;63.30;100645.28;5197794;28;20517;-74
2023/03/17 04:16:34;;;;;;;9.67;3.57;;;;;;;7.85;63.62;100640.41;5180948;28;20033;-75
2023/03/17 04:19:06;;;;;;;7.70;3.40;;;;;;;7.73;63.51;100637.50;5184154;28;20022;-75
2023/03/17 04:21:37;;;;;;;12.40;3.70;;;;;;;7.83;64.37;100631.81;5197964;28;20510;-75
2023/03/17 04:24:08;;;;;;;12.83;3.60;;;;;;;7.92;63.88;100647.00;5198075;28;20168;-76
2023/03/17 04:26:40;;;;;;;17.47;4.20;;;;;;;7.97;64.16;100647.59;5198253;28;20104;-76
2023/03/17 04:29:14;;;;;;;13.83;3.77;;;;;;;7.83;63.90;100643.09;5181033;28;20030;-76
2023/03/17 04:31:46;;;;;;;18.60;3.85;;;;;;;7.75;64.39;100633.06;5178270;28;20022;-76
2023/03/17 04:34:18;;;;;;;18.00;4.50;;;;;;;7.88;63.83;100632.41;5195406;28;20463;-76
2023/03/17 04:36:50;;;;;;;10.10;3.63;;;;;;;7.85;63.76;100622.16;5195428;28;20072;-76
2023/03/17 04:39:22;;;;;;;12.60;3.93;;;;;;;7.75;64.29;100638.25;5176904;28;20054;-75
2023/03/17 04:41:53;;;;;;;9.43;3.53;;;;;;;7.77;64.05;100653.00;5195398;28;20026;-75
2023/03/17 04:44:25;;;;;;;8.67;3.13;;;;;;;7.81;63.82;100644.09;5194878;28;20471;-75
2023/03/17 04:46:56;;;;;;;12.57;3.57;;;;;;;7.79;64.46;100631.13;5177003;28;20022;-75
2023/03/17 04:49:27;;;;;;;10.50;4.07;;;;;;;7.91;64.22;100647.91;5195166;28;20378;-75
2023/03/17 04:51:59;;;;;;;16.43;4.60;;;;;;;7.82;64.22;100643.19;5194544;28;20458;-75
2023/03/17 04:54:30;;;;;;;10.83;3.70;;;;;;;7.84;64.13;100636.09;5194567;28;20022;-75
2023/03/17 04:57:02;;;;;;;12.70;4.93;;;;;;;7.66;64.40;100628.34;5194259;28;20053;-75
2023/03/17 04:59:33;;;;;;;7.73;3.13;;;;;;;7.89;64.28;100644.53;5195602;28;20532;-75
2023/03/17 05:02:06;;;;;;;8.97;3.43;;;;;;;7.67;64.82;100642.19;5193995;28;20379;-75
2023/03/17 05:04:37;;;;;;;16.90;3.57;;;;;;;7.62;64.74;100619.81;5195022;28;20512;-75
2023/03/17 05:07:08;;;;;;;13.40;3.63;;;;;;;7.64;65.31;100632.78;5193655;28;20026;-75
2023/03/17 05:09:40;;;;;;;10.97;4.00;;;;;;;7.72;64.80;100619.31;5193211;28;20045;-75
2023/03/17 05:12:12;;;;;;;11.87;3.73;;;;;;;7.45;65.17;100597.19;5194550;28;20113;-75
2023/03/17 05:14:43;;;;;;;10.03;4.13;;;;;;;7.65;64.97;100613.59;5194619;28;20791;-75
2023/03/17 05:17:15;;;;;;;14.80;4.23;;;;;;;7.68;65.26;100612.59;5194118;28;20076;-75
2023/03/17 05:19:46;;;;;;;12.50;3.53;;;;;;;7.58;65.42;100600.03;5193977;28;20029;-75
2023/03/17 05:22:17;;;;;;;13.50;4.40;;;;;;;7.61;65.89;100607.69;5176202;28;20116;-75
2023/03/17 05:24:49;;;;;;;13.07;3.97;;;;;;;7.75;65.14;100614.81;5176508;28;20485;-75
2023/03/17 05:27:21;;;;;;;10.23;3.37;;;;;;;7.78;66.33;100618.19;5194122;28;20061;-75
2023/03/17 05:29:52;;;;;;;15.00;3.83;;;;;;;7.86;65.00;100623.84;5194104;28;20030;-75
2023/03/17 05:32:23;;;;;;;14.40;3.93;;;;;;;7.96;64.68;100638.06;5193441;28;20109;-75
2023/03/17 05:34:56;;;;;;;11.33;3.70;;;;;;;7.99;64.96;100637.09;5193734;28;20069;-75
2023/03/17 05:37:27;;;;;;;9.23;3.60;;;;;;;7.83;65.46;100637.03;5176285;28;20022;-75
2023/03/17 05:39:58;;;;;;;9.83;3.43;;;;;;;7.98;64.86;100640.59;5192976;28;20026;-75
2023/03/17 05:42:30;;;;;;;9.40;4.10;;;;;;;8.02;65.67;100638.69;5193779;28;20062;-75
2023/03/17 05:45:01;;;;;;;9.77;3.40;;;;;;;7.99;64.73;100637.09;5193047;28;20105;-75
2023/03/17 05:47:32;;;;;;;11.03;3.40;;;;;;;7.92;65.36;100631.34;5176595;28;20077;-76
2023/03/17 05:50:04;;;;;;;9.97;3.37;;;;;;;7.95;65.11;100614.69;5193687;28;20569;-76
2023/03/17 05:52:36;;;;;;;7.50;2.60;;;;;;;7.78;65.22;100626.84;5193966;28;20037;-76
2023/03/17 05:55:08;;;;;;;12.30;3.20;;;;;;;7.75;65.31;100625.22;5191612;28;20022;-76
2023/03/17 05:57:40;;;;;;;8.67;3.13;;;;;;;7.79;67.08;100645.94;5183015;28;20217;-76
2023/03/17 06:00:12;;;;;;;10.77;3.10;;;;;;;7.88;65.34;100619.38;5193584;28;20057;-75
2023/03/17 06:02:43;;;;;;;7.00;3.53;;;;;;;7.75;65.80;100619.16;5181901;28;20129;-75
2023/03/17 06:05:16;;;;;;;13.70;3.37;;;;;;;7.78;66.12;100632.06;5175552;28;20450;-75
2023/03/17 06:07:48;;;;;;;10.13;2.70;;;;;;;7.76;65.80;100615.66;5192824;28;20106;-76
2023/03/17 06:10:19;;;;;;;14.20;3.03;;;;;;;7.52;67.33;100594.28;5193474;28;20577;-76
2023/03/17 06:12:51;;;;;;;8.60;2.67;;;;;;;7.54;66.03;100598.50;5193345;28;20030;-75
2023/03/17 06:15:22;;;;;;;11.30;3.20;;;;;;;7.67;66.69;100639.56;5192616;28;20088;-76
2023/03/17 06:17:53;;;;;;;8.73;3.50;;;;;;;7.76;66.37;100631.28;5193202;28;20030;-76
2023/03/17 06:20:26;;;;;;;8.97;3.07;;;;;;;7.63;66.52;100636.28;5193443;28;20538;-76
2023/03/17 06:22:58;;;;;;;7.33;2.83;;;;;;;7.58;67.04;100640.88;5186517;28;20117;-76
2023/03/17 06:25:29;;;;;;;9.37;2.70;;;;;;;7.75;66.67;100640.03;5193546;28;20117;-76
2023/03/17 06:28:02;;;;;;;19.03;4.13;;;;;;;7.77;66.35;100632.97;5175284;28;20018;-76
2023/03/17 06:30:35;;;;;;;11.63;3.33;;;;;;;7.86;66.50;100647.31;5193349;28;20671;-75
2023/03/17 06:33:06;;;;;;;9.53;2.70;;;;;;;7.77;67.06;100651.22;5192125;28;20030;-76
2023/03/17 06:35:38;;;;;;;8.97;3.43;;;;;;;7.76;66.67;100644.34;5175657;28;20034;-76
2023/03/17 06:38:09;;;;;;;11.10;3.97;;;;;;;7.81;66.70;100638.88;5191241;28;20025;-75
2023/03/17 06:40:40;;;;;;;8.07;2.90;;;;;;;7.93;66.31;100638.25;5192451;28;20077;-75
2023/03/17 06:43:12;;;;;;;11.17;3.10;;;;;;;7.92;66.68;100636.56;5192505;28;20098;-75
2023/03/17 06:45:43;;;;;;;14.70;3.77;;;;;;;7.97;66.23;100634.56;5192368;28;20238;-75
2023/03/17 06:48:15;;;;;;;11.37;3.20;;;;;;;7.87;66.53;100622.94;5191452;28;20073;-75
2023/03/17 06:50:46;;;;;;;9.13;3.40;;;;;;;8.03;66.38;100627.34;5174603;28;20184;-75
2023/03/17 06:53:17;;;;;;;11.97;3.17;;;;;;;7.97;66.43;100631.97;5173935;28;20038;-75
2023/03/17 06:55:49;;;;;;;11.30;3.20;;;;;;;7.93;66.41;100614.78;5192170;28;20117;-75
2023/03/17 06:58:20;;;;;;;9.80;3.27;;;;;;;8.09;66.25;100637.44;5192209;28;20842;-75
2023/03/17 07:00:52;;;;;;;11.87;3.47;;;;;;;8.10;66.68;100645.19;5191968;28;20030;-75
2023/03/17 07:03:24;;;;;;;12.70;3.63;;;;;;;8.05;66.12;100621.09;5189528;28;20042;-75
2023/03/17 07:05:56;;;;;;;9.40;2.93;;;;;;;8.18;66.17;100634.34;5191921;28;20548;-76
2023/03/17 07:08:29;;;;;;;12.03;3.73;;;;;;;8.17;66.51;100624.81;5189712;28;20014;-75
2023/03/17 07:11:02;;;;;;;10.30;3.37;;;;;;;8.28;66.18;100645.13;5191846;28;20030;-75
2023/03/17 07:13:36;;;;;;;15.67;4.40;;;;;;;8.32;65.61;100641.44;5190642;28;20050;-75
2023/03/17 07:16:08;;;;;;;7.50;2.90;;;;;;;8.21;66.25;100636.78;5191397;28;20049;-75
2023/03/17 07:18:39;;;;;;;14.77;2.53;;;;;;;8.19;66.14;100620.38;5187215;28;20030;-75
2023/03/17 07:21:11;;;;;;;10.57;3.10;;;;;;;8.38;65.93;100642.03;5190173;28;20601;-75
2023/03/17 07:23:42;;;;;;;9.40;2.87;;;;;;;8.41;65.82;100637.47;5190642;28;20065;-75
2023/03/17 07:26:13;;;;;;;10.50;3.53;;;;;;;8.53;66.68;100642.97;5187804;28;20034;-75
2023/03/17 07:28:45;;;;;;;12.00;2.97;;;;;;;8.55;65.42;100633.28;5191328;28;20145;-74
2023/03/17 07:31:16;;;;;;;13.60;3.63;;;;;;;8.57;65.85;100634.09;5191680;28;20018;-74
2023/03/17 07:33:48;;;;;;;6.03;2.60;;;;;;;8.63;65.82;100633.72;5191373;28;20149;-74
2023/03/17 07:36:19;;;;;;;14.27;3.07;;;;;;;8.67;65.54;100622.22;5191358;28;20024;-74
2023/03/17 07:38:50;;;;;;;8.43;3.23;;;;;;;8.75;64.84;100621.75;5190333;28;20478;-75
2023/03/17 07:41:22;;;;;;;12.57;3.07;;;;;;;8.71;64.82;100618.47;5191434;28;20575;-75
2023/03/17 07:43:53;;;;;;;10.33;3.23;;;;;;;8.82;64.86;100620.50;5191970;28;20164;-74
2023/03/17 07:46:25;;;;;;;15.37;3.57;;;;;;;8.82;64.71;100625.72;5190227;28;20022;-74
2023/03/17 07:48:57;;;;;;;9.80;3.50;;;;;;;8.81;64.67;100612.75;5190551;28;20021;-75
2023/03/17 07:51:28;;;;;;;9.20;3.27;;;;;;;8.88;64.42;100613.25;5187963;28;20041;-75
2023/03/17 07:54:02;;;;;;;7.90;3.00;;;;;;;8.95;64.14;100619.81;5190353;28;20076;-74
2023/03/17 07:56:33;;;;;;;8.70;2.50;;;;;;;9.04;64.05;100628.91;5191446;28;20113;-74
2023/03/17 07:59:07;;;;;;;8.33;2.43;;;;;;;9.06;64.14;100621.78;5189559;28;20706;-74
2023/03/17 08:01:38;;;;;;;7.35;3.25;;;;;;;9.10;63.80;100636.38;5191050;28;20047;-75
2023/03/17 08:04:11;;;;;;;9.43;2.77;;;;;;;9.25;64.05;100652.13;5173731;28;20026;-74
2023/03/17 08:06:45;;;;;;;7.17;4.03;;;;;;;9.26;63.78;100640.72;5193928;28;20121;-74
2023/03/17 08:09:16;;;;;;;12.10;3.88;;;;;;;9.35;64.14;100632.34;5194096;28;20394;-75
2023/03/17 08:11:49;;;;;;;11.70;2.93;;;;;;;9.44;62.99;100626.56;5195304;28;20043;-75
2023/03/17 08:14:21;;;;;;;8.47;2.67;;;;;;;9.42;62.58;100618.00;5192348;28;20528;-75
2023/03/17 08:16:52;;;;;;;7.23;2.67;;;;;;;9.51;63.40;100610.53;5195283;28;20093;-75
2023/03/17 08:19:24;;;;;;;8.40;2.77;;;;;;;9.67;62.66;100624.38;5194726;28;21610;-75
2023/03/17 08:21:55;;;;;;;9.83;3.27;;;;;;;9.80;62.42;100644.56;5194258;28;20057;-75
2023/03/17 08:24:27;;;;;;;8.07;2.67;;;;;;;9.87;62.61;100645.88;5187553;28;20069;-75
2023/03/17 08:26:58;;;;;;;7.03;2.40;;;;;;;9.95;61.95;100644.59;5194013;28;20077;-75
2023/03/17 08:29:30;;;;;;;7.80;3.33;;;;;;;10.08;62.03;100642.91;5190451;28;20030;-75
2023/03/17 08:32:02;;;;;;;6.83;2.80;;;;;;;10.20;61.31;100616.91;5177175;28;20088;-76
2023/03/17 08:34:33;;;;;;;8.13;3.30;;;;;;;10.23;60.70;100629.78;5176932;28;20030;-74
2023/03/17 08:37:06;;;;;;;15.80;3.20;;;;;;;10.27;60.42;100624.28;5194669;28;20355;-75
2023/03/17 08:39:37;;;;;;;10.67;3.13;;;;;;;10.28;60.53;100606.81;5193551;28;20114;-76
2023/03/17 08:42:09;;;;;;;6.00;2.73;;;;;;;10.35;60.29;100602.84;5194471;28;20034;-75
2023/03/17 08:44:41;;;;;;;10.30;2.47;;;;;;;10.50;59.80;100606.34;5194812;28;20492;-74
2023/03/17 08:47:16;;;;;;;5.97;2.57;;;;;;;10.58;60.08;100595.34;5194392;28;20018;-75
2023/03/17 08:49:48;;;;;;;5.93;2.93;;;;;;;10.62;59.49;100614.34;5194199;28;20037;-74
2023/03/17 08:52:20;;;;;;;8.57;2.80;;;;;;;10.59;60.08;100611.91;5192933;28;20102;-75
2023/03/17 08:54:52;;;;;;;6.87;3.30;;;;;;;10.71;60.71;100623.38;5177071;28;20113;-75
2023/03/17 08:57:23;;;;;;;6.93;2.67;;;;;;;10.77;60.11;100621.19;5194182;28;20036;-75
2023/03/17 08:59:55;;;;;;;7.10;2.50;;;;;;;10.98;59.98;100633.84;5176668;28;20034;-74
2023/03/17 09:02:27;;;;;;;8.60;2.37;;;;;;;10.95;60.50;100609.63;5194056;28;20053;-75
2023/03/17 09:04:58;;;;;;;5.93;3.13;;;;;;;11.23;59.63;100626.16;5172417;28;20026;-76
2023/03/17 09:07:30;;;;;;;8.23;3.43;;;;;;;11.17;59.07;100622.16;5193834;28;20029;-75
2023/03/17 09:10:02;;;;;;;8.57;3.23;;;;;;;11.23;59.25;100615.69;5194406;28;20509;-76
2023/03/17 09:12:34;;;;;;;7.80;2.70;;;;;;;11.28;59.16;100615.34;5176710;28;20072;-76
2023/03/17 09:15:06;;;;;;;8.43;2.87;;;;;;;11.33;58.73;100608.88;5193346;28;20394;-75
2023/03/17 09:17:38;;;;;;;5.77;2.70;;;;;;;11.43;59.01;100616.94;5175715;28;20113;-74
2023/03/17 09:20:10;;;;;;;8.07;2.57;;;;;;;11.50;59.12;100617.41;5193986;28;20701;-74
2023/03/17 09:22:41;;;;;;;10.80;3.20;;;;;;;11.34;60.11;100592.22;5178724;28;20386;-75
2023/03/17 09:25:14;;;;;;;5.37;2.90;;;;;;;11.56;58.80;100624.84;5192773;28;20092;-74
2023/03/17 09:27:46;;;;;;;15.77;4.40;;;;;;;11.60;58.98;100634.19;5193586;28;20049;-74
2023/03/17 09:30:17;;;;;;;3.83;2.57;;;;;;;11.53;59.37;100609.31;5192780;28;20125;-75
2023/03/17 09:32:49;;;;;;;7.67;3.00;;;;;;;11.77;59.09;100626.94;5173832;28;20120;-75
2023/03/17 09:35:22;;;;;;;10.27;3.23;;;;;;;11.86;59.16;100607.97;5186894;28;21787;-74
2023/03/17 09:37:53;;;;;;;6.40;2.77;;;;;;;11.80;58.91;100602.31;5186900;28;20027;-74
2023/03/17 09:40:34;;;;;;;6.17;3.00;;;;;;;11.68;59.14;100554.97;5191111;28;20455;-74
2023/03/17 09:43:27;;;;;;;5.23;3.13;;;;;;;11.90;58.91;100605.13;5175537;28;20033;-74
2023/03/17 09:46:23;;;;;;;7.30;2.37;;;;;;;11.95;58.73;100605.63;5190296;28;20072;-74
2023/03/17 09:49:10;;;;;;;8.57;3.53;;;;;;;11.92;59.33;100597.97;5192593;28;20101;-74
2023/03/17 09:51:44;;;;;;;6.03;2.93;;;;;;;11.98;59.34;100600.16;5182448;28;20034;-73
2023/03/17 09:54:24;;;;;;;8.00;3.30;;;;;;;12.08;59.24;100601.19;5173898;28;20144;-72
2023/03/17 09:57:11;;;;;;;6.50;2.60;;;;;;;12.20;59.73;100604.78;5174047;28;20093;-73
2023/03/17 09:59:52;;;;;;;6.90;3.03;;;;;;;12.15;59.34;100616.56;5179588;28;20042;-73
2023/03/17 10:02:29;;;;;;;4.77;2.80;;;;;;;12.13;59.78;100621.06;5176225;28;20058;-73
2023/03/17 10:05:20;;;;;;;6.10;2.97;;;;;;;12.13;59.56;100618.44;5150740;28;20026;-74
2023/03/17 10:08:04;;;;;;;7.63;3.63;;;;;;;12.06;60.03;100603.09;5167569;28;20034;-74
2023/03/17 10:11:12;;;;;;;4.93;2.93;;;;;;;12.07;60.84;100617.91;5177798;28;20471;-74
2023/03/17 10:14:02;;;;;;;9.70;3.20;;;;;;;11.96;62.99;100602.06;5174410;28;20084;-74
2023/03/17 10:16:57;;;;;;;10.13;3.20;;;;;;;12.15;62.34;100651.50;5171909;28;20064;-75
2023/03/17 10:20:03;;;;;;;6.17;3.30;;;;;;;12.26;62.82;100645.53;5169167;28;20034;-74
2023/03/17 10:22:44;;;;;;;6.47;2.73;;;;;;;12.16;62.17;100624.34;5174465;28;20031;-75
2023/03/17 10:25:18;;;;;;;8.47;3.33;;;;;;;12.32;62.95;100652.13;5156046;28;20033;-74
2023/03/17 10:28:04;;;;;;;6.03;3.05;;;;;;;12.45;62.33;100654.72;5174562;28;20023;-74
2023/03/17 10:30:36;;;;;;;7.67;2.50;;;;;;;12.45;62.54;100652.09;5171818;28;20454;-74
2023/03/17 10:33:07;;;;;;;6.03;2.87;;;;;;;12.56;61.86;100644.28;5177087;28;20038;-74
2023/03/17 10:35:39;;;;;;;6.33;2.57;;;;;;;12.52;61.79;100640.19;5174392;28;20038;-73
2023/03/17 10:38:20;;;;;;;6.93;2.87;;;;;;;12.64;62.01;100643.72;5171193;28;20030;-74
2023/03/17 10:41:02;;;;;;;7.87;2.90;;;;;;;12.80;62.33;100640.84;5173545;28;20778;-73
2023/03/17 10:43:39;;;;;;;5.87;2.90;;;;;;;12.99;61.65;100641.25;5188723;28;20034;-74
2023/03/17 10:46:22;;;;;;;6.33;2.77;;;;;;;13.23;61.07;100633.34;5190860;28;20405;-75
2023/03/17 10:48:57;;;;;;;7.10;2.87;;;;;;;13.45;60.41;100636.16;5189676;28;20030;-76
2023/03/17 10:51:35;;;;;;;4.93;2.50;;;;;;;13.66;60.13;100645.09;5190142;28;20533;-76
2023/03/17 10:54:09;;;;;;;6.27;2.57;;;;;;;13.82;59.65;100643.09;5188139;28;20078;-75
2023/03/17 10:56:42;;;;;;;8.15;2.50;;;;;;;13.85;58.03;100633.16;5192574;28;20142;-75
2023/03/17 10:59:18;;;;;;;5.23;2.27;;;;;;;14.01;58.99;100634.59;5192934;28;20033;-75
2023/03/17 11:01:53;;;;;;;6.17;2.47;;;;;;;14.21;58.97;100632.16;5185087;28;20133;-75
2023/03/17 11:04:29;;;;;;;4.13;2.30;;;;;;;14.16;58.26;100624.66;5192342;28;20069;-74
2023/03/17 11:07:08;;;;;;;7.03;2.93;;;;;;;14.31;59.90;100611.22;5191068;28;20072;-74
2023/03/17 11:09:40;;;;;;;4.43;2.33;;;;;;;14.47;59.00;100610.84;5174245;28;20101;-75
2023/03/17 11:12:20;;;;;;;4.90;2.50;;;;;;;14.45;59.26;100624.13;5192179;28;20455;-75
2023/03/17 11:14:59;;;;;;;6.40;2.83;;;;;;;14.59;58.90;100620.38;5190743;28;20034;-75
2023/03/17 11:18:02;;;;;;;5.10;2.53;;;;;;;14.78;59.51;100618.91;5192718;28;20125;-74
2023/03/17 11:20:58;;;;;;;8.43;2.83;;;;;;;14.64;57.87;100612.13;5180069;28;20081;-75
2023/03/17 11:23:35;;;;;;;6.93;2.87;;;;;;;14.71;58.12;100608.03;5184319;28;20030;-75
2023/03/17 11:26:28;;;;;;;6.80;3.27;;;;;;;14.87;56.86;100606.81;5173647;28;20073;-75
2023/03/17 11:29:07;;;;;;;7.07;3.13;;;;;;;14.81;57.16;100609.91;5191812;28;20022;-75
2023/03/17 11:31:50;;;;;;;5.07;2.57;;;;;;;14.89;57.70;100610.13;5186001;28;20084;-74
2023/03/17 11:34:40;;;;;;;6.53;3.70;;;;;;;15.05;58.09;100614.13;5169634;28;20083;-75
2023/03/17 11:37:24;;;;;;;5.53;3.10;;;;;;;15.19;57.84;100616.47;5182336;28;20173;-75
2023/03/17 11:40:16;;;;;;;9.57;3.00;;;;;;;15.32;57.86;100618.94;5190608;28;20038;-75
2023/03/17 11:43:21;;;;;;;8.53;3.13;;;;;;;15.38;57.66;100622.84;5193836;28;20030;-75
2023/03/17 11:46:14;;;;;;;6.53;3.72;;;;;;;15.48;56.63;100615.81;5195463;28;20022;-75
2023/03/17 11:49:10;;;;;;;6.10;3.20;;;;;;;15.60;57.06;100618.41;5178458;28;20026;-74
2023/03/17 11:52:03;;;;;;;5.77;3.00;;;;;;;15.71;56.76;100602.47;5195073;28;20030;-73
2023/03/17 11:54:43;;;;;;;8.03;3.77;;;;;;;15.63;57.26;100591.72;5188150;28;20041;-74
2023/03/17 11:57:42;;;;;;;8.07;2.97;;;;;;;15.59;56.78;100585.03;5195895;28;20050;-74
2023/03/17 12:00:22;;;;;;;7.20;2.93;;;;;;;15.70;56.44;100584.13;5192207;28;20030;-74
2023/03/17 12:03:00;;;;;;;6.17;3.53;;;;;;;15.68;55.83;100568.41;5195764;28;20054;-74